Latest Weather Observations for Fortescue Dave Forrest

IDW60801

Issued at 7:02 pm WST Monday 6 July 2015 (issued every 30 minutes, with the page automatically refreshed every 10 minutes)

About weather observations | Map of weather stations | Latest weather observations for WA | Other Formats
Station Details ID: 505056 Name: FORTESCUE DAVE FORREST Lat: -22.29 Lon: 119.43 Height: 474.6 m
Data from the previous 72 hours. | See also: Recent months for locations in Western Australia
Date/Time
WST
Temp
°C
App
Temp
°C
Dew
Point
Rel
Hum
%
Delta-T
°C
Wind Press
QNH
hPa
Press
MSL
hPa
Rain
since 9 am
mm
Dir
 
Spd
km/h
Gust
km/h
Spd
kts
Gust
kts
06/07:00pm 18.0 15.2 2.3 35 7.3 SE 6 7 3 4 1019.0 1018.3 0.0
06/06:30pm 18.9 15.9 1.8 32 7.9 SE 7 9 4 5 1018.6 1017.9 0.0
06/06:00pm 19.3 16.2 1.1 29 8.4 SE 7 11 4 6 1018.3 1017.6 0.0
06/05:30pm 20.6 17.1 1.1 27 9.1 SE 9 11 5 6 1018.0 1017.2 0.0
06/05:00pm 23.0 18.5 -0.4 21 10.8 ESE 13 17 7 9 1017.8 1017.1 0.0
06/04:30pm 23.4 18.8 -0.8 20 11.1 ESE 13 19 7 10 1017.7 1017.0 0.0
06/04:00pm 23.6 19.4 -1.0 19 11.2 E 11 19 6 10 1017.6 1016.9 0.0
06/03:30pm 23.7 19.9 -0.5 20 11.2 E 9 19 5 10 1017.6 1016.9 0.0
06/03:00pm 23.6 18.3 -0.8 20 11.2 E 17 22 9 12 1017.6 1016.9 0.0
06/02:30pm 23.9 18.6 -0.4 20 11.3 E 17 26 9 14 1017.7 1017.0 0.0
06/02:00pm 23.4 18.1 -0.5 20 11.0 E 17 24 9 13 1017.8 1017.1 0.0
06/01:30pm 23.7 17.8 -0.6 20 11.2 ESE 20 30 11 16 1018.1 1017.3 0.0
06/01:00pm 23.0 17.1 -0.8 20 10.9 ESE 20 28 11 15 1018.3 1017.6 0.0
06/12:30pm 23.0 16.7 -0.7 20 10.9 E 22 32 12 17 1018.7 1018.0 0.0
06/12:00pm 22.6 16.0 -0.2 22 10.5 E 24 37 13 20 1019.2 1018.5 0.0
06/11:30am 22.6 16.0 -0.1 22 10.5 E 24 37 13 20 1019.7 1019.0 0.0
06/11:00am 22.3 16.5 -0.3 22 10.3 E 20 33 11 18 1020.0 1019.4 0.0
06/10:30am 21.5 16.8 1.1 26 9.6 ESE 15 24 8 13 1020.5 1019.8 0.0
06/10:00am 20.1 16.7 2.0 30 8.5 ESE 9 17 5 9 1020.8 1020.1 0.0
06/09:30am 18.2 15.5 2.7 35 7.3 SE 6 11 3 6 1020.9 1020.2 0.0
06/09:00am 16.3 14.0 2.6 39 6.3 E 4 7 2 4 1020.8 1020.1 0.0
06/08:30am 14.1 11.5 3.2 48 5.0 ESE 6 9 3 5 1020.6 1019.9 0.0
06/08:00am 12.6 10.3 2.8 51 4.4 ESE 4 7 2 4 1020.4 1019.7 0.0
06/07:30am 9.4 7.6 3.7 67 2.5 ESE 2 4 1 2 1020.2 1019.5 0.0
06/07:00am 7.1 4.9 3.2 76 1.7 ESE 4 6 2 3 1019.6 1018.9 0.0
06/06:30am 7.5 5.3 3.5 76 1.8 SE 4 6 2 3 1019.4 1018.7 0.0
06/06:00am 7.7 5.9 3.3 74 1.9 E 2 2 1 1 1019.2 1018.5 0.0
06/05:30am 8.2 6.4 3.6 73 2.0 S 2 6 1 3 1019.2 1018.5 0.0
06/05:00am 8.2 5.7 3.6 73 2.0 SE 6 7 3 4 1019.0 1018.3 0.0
06/04:30am 7.8 5.3 3.6 75 1.9 SE 6 9 3 5 1019.0 1018.3 0.0
06/04:00am 8.2 6.4 3.5 72 2.1 NW 2 4 1 2 1018.8 1018.1 0.0
06/03:30am 8.7 6.9 3.6 70 2.3 WNW 2 4 1 2 1019.0 1018.3 0.0
06/03:00am 9.0 7.2 3.6 69 2.4 NNW 2 4 1 2 1019.0 1018.3 0.0
06/02:30am 8.9 6.7 3.2 67 2.5 NNW 4 6 2 3 1019.1 1018.4 0.0
06/02:00am 9.8 7.5 3.0 62 3.0 NNW 4 6 2 3 1019.4 1018.7 0.0
06/01:30am 10.5 8.6 2.8 59 3.4 SSW 2 4 1 2 1019.7 1019.0 0.0
06/01:00am 11.6 9.6 2.5 53 4.0 S 2 6 1 3 1019.9 1019.2 0.0
06/12:30am 12.3 10.2 1.6 48 4.7 SSE 2 6 1 3 1019.8 1019.1 0.0
06/12:00am 11.7 9.3 2.3 52 4.2 S 4 6 2 3 1019.8 1019.1 0.0
 
Date/Time
WST
Temp
°C
App
Temp
°C
Dew
Point
Rel
Hum
%
Delta-T
°C
Wind Press
QNH
hPa
Press
MSL
hPa
Rain
since 9 am
mm
Dir
 
Spd
km/h
Gust
km/h
Spd
kts
Gust
kts
05/11:30pm 12.2 10.3 2.7 52 4.3 NNE 2 4 1 2 1019.8 1019.1 0.0
05/11:00pm 11.9 10.0 2.9 54 4.0 N 2 4 1 2 1019.8 1019.1 0.0
05/10:30pm 12.4 10.5 3.0 52 4.3 N 2 4 1 2 1020.0 1019.4 0.0
05/10:00pm 12.5 10.6 3.1 52 4.3 N 2 6 1 3 1020.0 1019.4 0.0
05/09:30pm 13.1 11.7 3.5 52 4.4 CALM 0 2 0 1 1020.3 1019.6 0.0
05/09:00pm 13.4 11.6 3.4 50 4.6 NNE 2 2 1 1 1020.3 1019.6 0.0
05/08:30pm 13.8 12.0 3.6 50 4.7 ENE 2 4 1 2 1020.3 1019.6 0.0
05/08:00pm 14.1 12.3 3.4 48 4.9 W 2 2 1 1 1020.2 1019.5 0.0
05/07:30pm 16.7 13.9 2.0 37 6.8 ESE 6 7 3 4 1019.9 1019.2 0.0
05/07:00pm 16.7 14.4 2.7 39 6.5 ESE 4 6 2 3 1019.7 1019.0 0.0
05/06:30pm 19.0 15.9 1.3 30 8.2 SE 7 9 4 5 1019.6 1018.9 0.0
05/06:00pm 19.2 15.3 1.2 30 8.3 SSE 11 13 6 7 1019.4 1018.7 0.0
05/05:30pm 20.4 16.5 0.9 27 9.0 SSE 11 13 6 7 1019.3 1018.6 0.0
05/05:00pm 22.3 18.4 0.9 24 10.0 SSE 11 15 6 8 1019.2 1018.5 0.0
05/04:30pm 23.2 18.8 0.3 22 10.7 SSE 13 19 7 10 1019.1 1018.4 0.0
05/04:00pm 23.8 19.5 0.7 22 10.9 SE 13 24 7 13 1019.0 1018.3 0.0
05/03:30pm 23.8 19.5 1.1 22 10.8 SE 13 20 7 11 1019.0 1018.3 0.0
05/03:00pm 23.9 20.0 1.2 22 10.8 SE 11 19 6 10 1019.0 1018.3 0.0
05/02:30pm 24.0 18.6 1.5 23 10.8 SE 19 26 10 14 1019.2 1018.5 0.0
05/02:00pm 23.7 18.0 -0.4 20 11.1 ESE 19 28 10 15 1019.3 1018.6 0.0
05/01:30pm 23.5 17.9 -0.3 20 11.0 E 19 28 10 15 1019.7 1019.0 0.0
05/01:00pm 23.6 18.7 -0.4 20 11.1 E 15 32 8 17 1020.0 1019.4 0.0
05/12:30pm 23.2 17.6 -0.3 21 10.9 E 19 32 10 17 1020.7 1020.0 0.0
05/12:00pm 23.3 17.7 0.2 21 10.8 ESE 19 26 10 14 1021.1 1020.4 0.0
05/11:30am 22.4 16.8 0.2 23 10.3 E 19 33 10 18 1021.7 1021.0 0.0
05/11:00am 21.8 16.4 1.0 25 9.7 ESE 19 28 10 15 1022.0 1021.4 0.0
05/10:30am 21.1 16.8 1.1 26 9.3 E 13 22 7 12 1022.2 1021.6 0.0
05/10:00am 19.4 15.3 2.0 31 8.1 ESE 13 19 7 10 1022.7 1022.0 0.0
05/09:30am 17.6 14.9 2.5 36 7.1 E 6 9 3 5 1022.8 1022.1 0.0
05/09:00am 15.4 12.1 2.6 42 5.9 ESE 9 13 5 7 1022.7 1022.0 0.0
05/08:30am 13.8 10.1 2.6 46 5.1 ESE 11 15 6 8 1022.6 1021.9 0.0
05/08:00am 11.6 9.9 4.0 59 3.5 E 2 4 1 2 1022.4 1021.7 0.0
05/07:30am 8.1 6.4 3.8 74 1.9 SW 2 4 1 2 1021.8 1021.2 0.0
05/07:00am 6.8 5.0 3.2 78 1.6 W 2 2 1 1 1021.6 1020.9 0.0
05/06:30am 7.3 5.5 3.4 76 1.7 NW 2 2 1 1 1021.4 1020.7 0.0
05/06:00am 8.1 5.9 3.5 73 2.0 SE 4 6 2 3 1021.4 1020.7 0.0
05/05:30am 7.4 5.6 3.2 75 1.8 SSE 2 4 1 2 1021.2 1020.5 0.0
05/05:00am 7.5 5.7 3.6 76 1.7 S 2 4 1 2 1020.8 1020.1 0.0
05/04:30am 7.5 5.7 3.5 76 1.8 SSW 2 4 1 2 1020.5 1019.8 0.0
05/04:00am 8.0 6.2 3.4 73 2.0 SW 2 4 1 2 1020.5 1019.8 0.0
05/03:30am 8.2 6.4 3.2 71 2.2 SW 2 2 1 1 1020.5 1019.8 0.0
05/03:00am 8.7 6.9 3.3 69 2.4 SSW 2 4 1 2 1020.5 1019.8 0.0
05/02:30am 10.1 7.9 3.3 62 3.0 SSE 4 4 2 2 1020.6 1019.9 0.0
05/02:00am 10.6 7.9 2.9 59 3.4 SSE 6 7 3 4 1020.6 1019.9 0.0
05/01:30am 9.4 7.6 3.5 66 2.6 SW 2 4 1 2 1020.7 1020.0 0.0
05/01:00am 9.8 8.0 3.4 64 2.8 NW 2 4 1 2 1020.8 1020.1 0.0
05/12:30am 9.9 8.1 3.3 63 2.9 SW 2 2 1 1 1020.9 1020.2 0.0
05/12:00am 12.4 10.6 3.6 55 4.0 E 2 4 1 2 1021.0 1020.3 0.0
 
Date/Time
WST
Temp
°C
App
Temp
°C
Dew
Point
Rel
Hum
%
Delta-T
°C
Wind Press
QNH
hPa
Press
MSL
hPa
Rain
since 9 am
mm
Dir
 
Spd
km/h
Gust
km/h
Spd
kts
Gust
kts
04/11:30pm 12.9 10.4 4.0 54 4.1 SE 6 7 3 4 1021.0 1020.3 0.0
04/11:00pm 13.4 10.9 3.6 51 4.5 SSE 6 9 3 5 1021.1 1020.4 0.0
04/10:30pm 13.9 11.1 1.8 44 5.4 SE 6 7 3 4 1021.2 1020.5 0.0
04/10:00pm 12.8 10.9 3.1 51 4.4 E 2 6 1 3 1021.3 1020.6 0.0
04/09:30pm 12.8 10.6 3.5 53 4.3 N 4 4 2 2 1021.3 1020.6 0.0
04/09:00pm 13.1 11.3 3.7 53 4.3 N 2 4 1 2 1021.2 1020.5 0.0
04/08:30pm 14.2 12.9 4.0 50 4.8 CALM 0 4 0 2 1021.1 1020.4 0.0
04/08:00pm 15.2 13.5 3.9 47 5.3 ESE 2 6 1 3 1020.9 1020.2 0.0
04/07:30pm 17.0 15.1 3.1 39 6.5 ESE 2 4 1 2 1020.7 1020.0 0.0
04/07:00pm 17.9 15.5 2.0 34 7.4 ESE 4 6 2 3 1020.6 1019.9 0.0
04/06:30pm 18.6 15.7 1.6 32 7.9 SE 6 9 3 5 1020.4 1019.7 0.0
04/06:00pm 19.6 16.1 1.4 29 8.4 SE 9 11 5 6 1020.2 1019.5 0.0
04/05:30pm 20.8 17.3 1.0 26 9.2 SSE 9 15 5 8 1019.8 1019.1 0.0
04/05:00pm 22.6 18.2 0.6 23 10.3 SE 13 17 7 9 1019.8 1019.1 0.0
04/04:30pm 23.7 18.9 0.4 21 11.0 SE 15 22 8 12 1019.8 1019.1 0.0
04/04:00pm 24.1 18.9 0.1 20 11.2 SE 17 24 9 13 1019.8 1019.1 0.0
04/03:30pm 24.6 19.9 0.9 21 11.3 SSE 15 30 8 16 1019.7 1019.0 0.0
04/03:00pm 24.2 18.8 1.0 21 11.0 SE 19 28 10 15 1019.9 1019.2 0.0
04/02:30pm 24.5 19.4 0.8 21 11.3 SSE 17 30 9 16 1020.2 1019.5 0.0
04/02:00pm 24.6 19.9 0.7 21 11.3 SSE 15 28 8 15 1020.3 1019.6 0.0
04/01:30pm 23.7 18.5 0.2 21 11.0 SE 17 26 9 14 1020.6 1019.9 0.0
04/01:00pm 23.3 17.8 0.3 22 10.7 SE 19 32 10 17 1020.8 1020.1 0.0
04/12:30pm 22.9 17.2 0.7 23 10.4 SSE 20 28 11 15 1021.2 1020.5 0.0
04/12:00pm 22.3 16.5 -0.2 22 10.3 SE 20 32 11 17 1021.8 1021.2 0.0
04/11:30am 21.5 16.0 0.9 25 9.6 ESE 19 28 10 15 1022.1 1021.5 0.0
04/11:00am 21.1 17.0 2.3 29 9.0 SE 13 20 7 11 1022.6 1021.9 0.0
04/10:30am 20.3 17.1 3.0 32 8.3 SE 9 17 5 9 1023.0 1022.3 0.0
04/10:00am 18.7 15.6 3.7 37 7.2 SE 9 17 5 9 1023.2 1022.5 0.0
04/09:30am 17.2 14.7 4.0 41 6.3 SE 6 9 3 5 1023.2 1022.5 0.0
04/09:00am 15.3 12.2 3.7 46 5.4 SE 9 15 5 8 1023.1 1022.4 -
04/08:30am 13.5 10.1 4.0 52 4.4 SE 11 15 6 8 1023.0 1022.3 -
04/08:00am 11.8 9.4 4.5 61 3.4 ESE 6 9 3 5 1023.0 1022.3 -
04/07:30am 10.6 8.6 4.6 66 2.8 SE 4 6 2 3 1022.6 1021.9 -
04/07:00am 9.1 7.0 4.0 70 2.3 SE 4 6 2 3 1022.2 1021.6 -
04/06:30am 9.6 6.9 3.7 66 2.6 SE 7 9 4 5 1021.9 1021.3 -
04/06:00am 8.2 6.2 4.5 77 1.7 SE 4 6 2 3 1021.6 1020.9 -
04/05:30am 8.9 7.0 5.0 76 1.8 ESE 4 6 2 3 1021.4 1020.7 -
04/05:00am 9.9 7.6 5.7 75 2.0 SE 7 9 4 5 1021.3 1020.6 -
04/04:30am 8.6 7.1 5.0 78 1.7 E 2 4 1 2 1021.4 1020.7 -
04/04:00am 9.1 8.0 5.1 76 1.8 CALM 0 2 0 1 1021.3 1020.6 -
04/03:30am 8.4 6.5 4.7 77 1.7 SSE 4 4 2 2 1021.4 1020.7 -
04/03:00am 10.4 9.0 5.4 71 2.3 ESE 2 4 1 2 1021.5 1020.8 0.0
04/02:30am 10.1 7.9 5.1 71 2.3 SE 6 6 3 3 1021.5 1020.8 -
04/02:00am 10.0 8.5 4.9 70 2.4 WSW 2 2 1 1 1021.6 1020.9 -
04/01:30am 10.7 9.2 4.9 67 2.7 SW 2 2 1 1 1021.6 1020.9 -
04/01:00am 12.0 10.9 5.1 62 3.2 CALM 0 2 0 1 1021.8 1021.2 -
04/12:30am 11.9 9.8 5.7 66 3.0 S 6 7 3 4 1021.9 1021.3 -
04/12:00am 11.9 10.0 4.7 61 3.4 SSE 4 6 2 3 1021.8 1021.2 -
 
Date/Time
WST
Temp
°C
App
Temp
°C
Dew
Point
Rel
Hum
%
Delta-T
°C
Wind Press
QNH
hPa
Press
MSL
hPa
Rain
since 9 am
mm
Dir
 
Spd
km/h
Gust
km/h
Spd
kts
Gust
kts
03/11:30pm 12.7 11.2 4.9 59 3.7 S 2 2 1 1 1022.0 1021.4 -
03/11:00pm 13.6 12.1 5.1 56 4.1 WNW 2 2 1 1 1022.2 1021.6 -
03/10:30pm 13.5 12.0 5.1 57 4.0 N 2 2 1 1 1022.4 1021.7 -
03/10:00pm 14.1 12.7 5.3 55 4.2 NE 2 4 1 2 1022.5 1021.8 -
03/09:30pm 14.1 12.7 5.7 57 4.1 NNE 2 4 1 2 1022.5 1021.8 -
03/09:00pm 14.2 12.8 5.6 56 4.2 NNE 2 4 1 2 1022.5 1021.8 -
03/08:30pm 14.7 13.3 5.5 54 4.5 N 2 4 1 2 1022.5 1021.8 -
03/08:00pm 16.3 14.9 5.3 48 5.4 ESE 2 4 1 2 1022.4 1021.7 -
03/07:30pm 17.9 15.9 4.3 40 6.6 ESE 4 6 2 3 1022.1 1021.5 -

Other Formats:

Comma delimited format used in spreadsheet applications
http://www.bom.gov.au/fwo/IDW60801/IDW60801.99736.axf

JavaScript Object Notation format (JSON) in row-major order
http://www.bom.gov.au/fwo/IDW60801/IDW60801.99736.json